Wetterdaten: aktuell Montag, 24.06.2024 23:45
Datum Zeit Temp. A. Feuchte A. Luftdruck Regen Wind Richtung Richtung Sonnenschein UV Windben
24.06.2024 23:45 20,2 C 64 % 1014,4 hPa 0,0 l/m 5,1 km/h NO 34 0 min 0,0 UV-I 12,9 km/h
24.06.2024 22:45 20,4 C 65 % 1014,5 hPa 0,0 l/m 3,8 km/h N 5 0 min 0,0 UV-I 9,7 km/h
24.06.2024 21:45 21,3 C 64 % 1014,3 hPa 0,0 l/m 0,1 km/h N 360 0 min 0,0 UV-I 1,6 km/h
24.06.2024 20:45 23,9 C 55 % 1013,8 hPa 0,0 l/m 0,6 km/h NO 45 45 min 0,0 UV-I 3,2 km/h
24.06.2024 19:45 25,7 C 51 % 1013,8 hPa 0,0 l/m 4,2 km/h N-NO 33 20 min 0,0 UV-I 11,3 km/h
24.06.2024 18:45 25,2 C 51 % 1013,8 hPa 0,0 l/m 5,9 km/h O-NO 61 30 min 0,8 UV-I 12,9 km/h
24.06.2024 17:45 25,8 C 50 % 1013,9 hPa 0,0 l/m 5,5 km/h S-SO 148 60 min 1,3 UV-I 17,7 km/h
24.06.2024 16:45 26,8 C 48 % 1014,4 hPa 0,0 l/m 6,3 km/h O-NO 63 45 min 3,7 UV-I 16,1 km/h
24.06.2024 15:45 27,1 C 48 % 1015,0 hPa 0,0 l/m 10,1 km/h NO 52 55 min 5,3 UV-I 20,9 km/h
24.06.2024 14:45 25,2 C 53 % 1015,6 hPa 0,0 l/m 7,3 km/h NO 52 15 min 5,2 UV-I 12,9 km/h
24.06.2024 13:45 26,1 C 52 % 1016,0 hPa 0,0 l/m 6,5 km/h N-NO 32 55 min 6,2 UV-I 17,7 km/h
24.06.2024 12:45 25,9 C 50 % 1016,3 hPa 0,0 l/m 7,2 km/h O 91 60 min 7,6 UV-I 14,5 km/h
24.06.2024 11:45 24,8 C 57 % 1016,7 hPa 0,0 l/m 4,9 km/h NO 44 60 min 6,5 UV-I 14,5 km/h
24.06.2024 10:45 23,8 C 58 % 1017,0 hPa 0,0 l/m 7,7 km/h O-NO 59 60 min 4,8 UV-I 20,9 km/h
24.06.2024 09:45 22,1 C 65 % 1017,4 hPa 0,0 l/m 6,1 km/h O-NO 65 20 min 3,1 UV-I 12,9 km/h
24.06.2024 08:45 20,3 C 70 % 1017,4 hPa 0,0 l/m 5,5 km/h N 11 45 min 1,3 UV-I 12,9 km/h
24.06.2024 07:45 18,1 C 81 % 1017,5 hPa 0,0 l/m 1,6 km/h NW 315 5 min 0,6 UV-I 6,4 km/h
24.06.2024 06:45 16,1 C 86 % 1017,4 hPa 0,0 l/m 1,6 km/h NW 315 0 min 0,0 UV-I 4,8 km/h
24.06.2024 05:45 15,6 C 86 % 1017,0 hPa 0,0 l/m 1,6 km/h NW 315 0 min 0,0 UV-I 4,8 km/h
24.06.2024 04:45 16,1 C 86 % 1017,1 hPa 0,0 l/m 3,2 km/h W-NW 292 0 min 0,0 UV-I 6,4 km/h
24.06.2024 03:45 16,4 C 86 % 1017,1 hPa 0,0 l/m 4,8 km/h NW 315 0 min 0,0 UV-I 8,0 km/h
24.06.2024 02:45 16,6 C 87 % 1017,3 hPa 0,0 l/m 3,2 km/h NW 315 0 min 0,0 UV-I 6,4 km/h
24.06.2024 01:45 16,8 C 88 % 1017,5 hPa 0,0 l/m 1,6 km/h W 270 0 min 0,0 UV-I 4,8 km/h
24.06.2024 00:45 16,7 C 88 % 1017,6 hPa 0,0 l/m 6,4 km/h NW 315 0 min 0,0 UV-I 12,9 km/h
24.06.2024 00:00 16,9 C 87 % 1017,7 hPa 0,0 l/m 4,8 km/h NW 315 0 min 0,0 UV-I 11,3 km/h
_ Min-Zeit 06:05 16:50 20:55 - 22:20 - - - - 22:20
Minimum _ 15,5 C 47 % 1013,8 hPa - 0,0 km/h - - - - 0,0 km/h
_ Max-Zeit 16:20 02:25 00:25 23:45 13:05 - - 20:30 13:30 13:00
Maximum _ 27,2 C 88 % 1017,7 hPa 0,0 l/m 10,6 km/h
O
- - 5 min 8,2 UV-I 24,1 km/h
O
Durchschnitt _ 21,5 C 67 % 1016,0 hPa #0,0 l/m 4,4 km/h NW - #9:35 h 3,8 UV-I 10,6 km/h